Time;durP1;ratioP1;P1;durP2;ratioP2;P2;SDS_P1;SDS_P2;PMS_P1;PMS_P2;Temp;Humidity;BMP_temperature;BMP_pressure;BME280_temperature;BME280_humidity;BME280_pressure;Samples;Min_cycle;Max_cycle;Signal;HPM_P1;HPM_P2
2023/06/01 00:02:06;;;;;;;14.65;5.40;;;11.20;99.90;;;;;;5041567;28;20418;-77
2023/06/01 00:04:32;;;;;;;10.77;4.27;;;11.10;99.90;;;;;;5043765;28;20482;-82
2023/06/01 00:07:01;;;;;;;11.83;4.60;;;11.20;99.90;;;;;;5022257;28;20444;-81
2023/06/01 00:09:27;;;;;;;12.02;4.32;;;11.20;99.90;;;;;;5040065;28;20433;-83
2023/06/01 00:11:52;;;;;;;11.38;4.72;;;11.30;99.90;;;;;;5045171;28;20475;-83
2023/06/01 00:14:18;;;;;;;11.27;4.25;;;11.10;99.90;;;;;;5040568;28;20487;-79
2023/06/01 00:16:45;;;;;;;10.98;5.18;;;11.30;99.90;;;;;;5045448;28;20419;-82
2023/06/01 00:19:11;;;;;;;14.38;5.57;;;11.10;99.90;;;;;;5043419;28;20955;-76
2023/06/01 00:21:36;;;;;;;20.63;5.72;;;11.10;99.90;;;;;;5047580;28;20413;-85
2023/06/01 00:24:02;;;;;;;9.43;5.13;;;11.10;99.90;;;;;;5044430;28;21219;-85
2023/06/01 00:26:31;;;;;;;11.60;5.87;;;10.90;99.90;;;;;;5043749;28;20435;-82
2023/06/01 00:28:58;;;;;;;11.18;4.90;;;11.10;99.90;;;;;;5047617;28;20453;-79
2023/06/01 00:31:24;;;;;;;14.35;5.85;;;11.10;99.90;;;;;;5044078;28;20432;-82
2023/06/01 00:33:50;;;;;;;12.45;5.07;;;11.20;99.90;;;;;;5045780;28;20429;-83
2023/06/01 00:36:16;;;;;;;11.90;5.72;;;11.30;99.90;;;;;;5043825;28;20433;-80
2023/06/01 00:38:41;;;;;;;15.20;6.05;;;11.30;99.90;;;;;;5037481;28;20429;-84
2023/06/01 00:41:07;;;;;;;13.48;6.47;;;11.20;99.90;;;;;;5035842;28;20413;-79
2023/06/01 00:43:33;;;;;;;16.58;6.80;;;11.20;99.90;;;;;;5042407;28;20638;-78
2023/06/01 00:45:59;;;;;;;12.90;5.60;;;11.20;99.90;;;;;;5044929;28;20424;-83
2023/06/01 00:48:24;;;;;;;17.55;6.38;;;11.20;99.90;;;;;;5047014;28;20431;-81
2023/06/01 00:50:50;;;;;;;14.82;5.78;;;11.10;99.90;;;;;;5043203;28;20448;-84
2023/06/01 00:53:18;;;;;;;11.40;5.22;;;11.10;99.90;;;;;;5047911;28;20437;-76
2023/06/01 00:55:45;;;;;;;13.35;6.20;;;11.00;99.90;;;;;;5050722;28;20471;-82
2023/06/01 00:58:12;;;;;;;11.35;5.50;;;10.80;99.90;;;;;;5045944;28;20863;-80
2023/06/01 01:00:38;;;;;;;13.45;5.38;;;10.90;99.90;;;;;;5048567;28;20796;-83
2023/06/01 01:03:07;;;;;;;12.80;5.40;;;10.90;99.90;;;;;;5118051;22;20439;-75
2023/06/01 01:05:33;;;;;;;11.18;4.95;;;11.00;99.90;;;;;;5081003;28;20423;-81
2023/06/01 01:08:24;;;;;;;12.73;4.90;;;11.00;99.90;;;;;;5071843;28;20422;-82
2023/06/01 01:10:55;;;;;;;11.77;4.95;;;11.00;99.90;;;;;;5059255;28;20434;-85
2023/06/01 01:13:45;;;;;;;15.98;4.72;;;10.80;99.90;;;;;;5058780;28;20919;-79
2023/06/01 01:16:24;;;;;;;16.27;5.82;;;10.90;99.90;;;;;;5081958;28;20417;-80
2023/06/01 01:19:25;;;;;;;12.40;5.27;;;10.90;99.90;;;;;;5085504;28;20436;-83
2023/06/01 01:22:20;;;;;;;13.82;5.78;;;11.00;99.90;;;;;;5081556;28;20430;-84
2023/06/01 01:25:23;;;;;;;12.40;5.43;;;10.90;99.90;;;;;;5082630;28;20421;-83
2023/06/01 01:28:24;;;;;;;14.35;5.57;;;10.90;99.90;;;;;;5080747;28;20418;-84
2023/06/01 01:30:53;;;;;;;11.95;4.55;;;10.90;99.90;;;;;;5090576;28;20998;-84
2023/06/01 01:33:20;;;;;;;17.75;6.93;;;10.90;99.90;;;;;;5076155;28;20498;-83
2023/06/01 01:35:48;;;;;;;12.38;5.10;;;10.90;99.90;;;;;;5073599;28;20834;-86
2023/06/01 01:38:13;;;;;;;10.45;4.82;;;11.10;99.90;;;;;;5077592;28;20477;-84
2023/06/01 01:40:39;;;;;;;13.77;6.05;;;10.90;99.90;;;;;;5083460;28;20416;-85
2023/06/01 01:43:05;;;;;;;12.23;6.67;;;11.00;99.90;;;;;;5096689;28;20511;-82
2023/06/01 01:45:31;;;;;;;14.00;6.97;;;10.90;99.90;;;;;;5073512;28;20577;-82
2023/06/01 01:48:16;;;;;;;15.93;6.40;;;10.90;99.90;;;;;;5076911;28;20425;-78
2023/06/01 01:50:55;;;;;;;13.88;6.70;;;10.90;99.90;;;;;;5065817;28;20408;-82
2023/06/01 01:53:23;;;;;;;13.82;6.95;;;11.00;99.90;;;;;;5070525;28;20434;-84
2023/06/01 01:55:50;;;;;;;15.38;7.18;;;11.10;99.90;;;;;;5082272;28;20927;-85
2023/06/01 01:58:16;;;;;;;13.25;7.10;;;11.10;99.90;;;;;;5077643;28;20439;-81
2023/06/01 02:00:43;;;;;;;13.85;7.38;;;11.10;99.90;;;;;;5074523;28;20473;-82
2023/06/01 02:03:16;;;;;;;14.23;6.93;;;11.10;99.90;;;;;;5079134;28;20453;-79
2023/06/01 02:05:42;;;;;;;12.00;6.10;;;11.00;99.90;;;;;;5079595;28;20426;-83
2023/06/01 02:08:08;;;;;;;12.40;7.40;;;11.10;99.90;;;;;;5093481;28;20447;-84
2023/06/01 02:10:34;;;;;;;13.93;6.43;;;11.10;99.90;;;;;;5074229;28;20442;-82
2023/06/01 02:13:00;;;;;;;12.10;5.72;;;11.00;99.90;;;;;;5079926;28;20431;-81
2023/06/01 02:15:26;;;;;;;11.02;4.95;;;11.00;99.90;;;;;;5067358;28;20426;-80
2023/06/01 02:17:53;;;;;;;11.75;4.85;;;11.00;99.90;;;;;;5078135;28;20413;-76
2023/06/01 02:20:19;;;;;;;9.75;4.38;;;11.00;99.90;;;;;;5068907;28;20467;-83
2023/06/01 02:22:45;;;;;;;9.38;4.82;;;11.10;99.90;;;;;;5044717;28;20421;-84
2023/06/01 02:25:11;;;;;;;7.88;4.47;;;10.90;99.90;;;;;;5070388;28;20920;-81
2023/06/01 02:27:36;;;;;;;7.63;4.43;;;11.00;99.90;;;;;;5058931;28;20433;-81
2023/06/01 02:30:03;;;;;;;9.82;3.80;;;10.90;99.90;;;;;;5084306;28;20489;-85
2023/06/01 02:32:30;;;;;;;7.50;4.07;;;11.00;99.90;;;;;;5075379;28;20457;-81
2023/06/01 02:34:56;;;;;;;9.13;4.43;;;11.00;99.90;;;;;;5077492;28;20489;-79
2023/06/01 02:37:22;;;;;;;7.88;3.85;;;11.00;99.90;;;;;;5060653;28;20507;-79
2023/06/01 02:39:47;;;;;;;9.20;4.25;;;11.00;99.90;;;;;;5086542;28;20424;-76
2023/06/01 02:42:13;;;;;;;10.25;3.78;;;11.00;99.90;;;;;;5084692;28;20426;-84
2023/06/01 02:44:39;;;;;;;10.73;4.65;;;11.00;99.90;;;;;;5068763;28;20418;-84
2023/06/01 02:47:05;;;;;;;10.02;4.53;;;11.00;99.90;;;;;;5081834;28;20425;-78
2023/06/01 02:49:31;;;;;;;10.27;4.60;;;11.10;99.90;;;;;;5082572;28;20424;-81
2023/06/01 02:51:56;;;;;;;13.03;6.23;;;11.20;99.90;;;;;;5078311;28;20422;-84
2023/06/01 02:54:22;;;;;;;12.57;6.53;;;11.10;99.90;;;;;;5090734;28;20468;-82
2023/06/01 02:56:48;;;;;;;10.88;5.35;;;11.10;99.90;;;;;;5079268;28;20470;-80
2023/06/01 02:59:13;;;;;;;11.05;5.32;;;11.20;99.90;;;;;;5075977;28;20559;-85
2023/06/01 03:01:40;;;;;;;12.18;7.00;;;11.10;99.90;;;;;;5082840;28;20414;-81
2023/06/01 03:04:07;;;;;;;8.57;5.47;;;11.20;99.90;;;;;;5086272;28;20445;-84
2023/06/01 03:06:37;;;;;;;11.77;5.37;;;11.10;99.90;;;;;;5087467;28;20441;-83
2023/06/01 03:09:12;;;;;;;9.98;6.38;;;11.00;99.90;;;;;;5072570;28;20452;-79
2023/06/01 03:11:42;;;;;;;11.77;5.10;;;11.20;99.90;;;;;;5083491;28;20486;-79
2023/06/01 03:14:08;;;;;;;9.57;5.22;;;11.30;99.90;;;;;;5084227;28;20425;-85
2023/06/01 03:16:34;;;;;;;11.73;5.70;;;11.30;99.90;;;;;;5087450;28;20429;-75
2023/06/01 03:19:00;;;;;;;11.45;6.15;;;11.10;99.90;;;;;;5081985;28;20435;-83
2023/06/01 03:21:27;;;;;;;14.07;5.93;;;11.20;99.90;;;;;;5062516;28;20450;-75
2023/06/01 03:23:53;;;;;;;12.48;4.35;;;11.20;99.90;;;;;;5077451;28;20546;-84
2023/06/01 03:26:20;;;;;;;10.25;4.50;;;11.20;99.90;;;;;;5084964;28;20421;-79
2023/06/01 03:28:46;;;;;;;9.32;4.78;;;11.10;99.90;;;;;;5075982;28;20435;-76
2023/06/01 03:31:12;;;;;;;12.27;4.68;;;11.20;99.90;;;;;;5079713;28;20422;-84
2023/06/01 03:33:39;;;;;;;10.40;4.27;;;11.10;99.90;;;;;;5050848;28;20513;-84
2023/06/01 03:36:06;;;;;;;7.95;3.80;;;11.20;99.90;;;;;;5081177;28;20498;-84
2023/06/01 03:38:32;;;;;;;9.27;4.03;;;11.30;99.90;;;;;;5075846;28;20509;-83
2023/06/01 03:40:58;;;;;;;9.55;3.67;;;11.30;99.90;;;;;;5084601;28;20501;-82
2023/06/01 03:43:24;;;;;;;7.32;3.47;;;11.40;99.90;;;;;;5069164;28;20423;-83
2023/06/01 03:45:50;;;;;;;9.38;3.65;;;11.20;99.90;;;;;;5065498;28;20533;-84
2023/06/01 03:48:15;;;;;;;8.40;3.97;;;11.30;99.90;;;;;;5083014;28;20983;-84
2023/06/01 03:50:41;;;;;;;6.95;3.55;;;11.30;99.90;;;;;;5080500;28;20427;-84
2023/06/01 03:53:07;;;;;;;9.25;3.90;;;11.40;99.90;;;;;;5077431;28;20436;-80
2023/06/01 03:55:34;;;;;;;11.60;4.07;;;11.30;99.90;;;;;;5074394;28;20508;-84
2023/06/01 03:58:02;;;;;;;9.60;3.85;;;11.50;99.90;;;;;;5085423;28;20418;-81
2023/06/01 04:00:28;;;;;;;7.60;4.07;;;11.40;99.90;;;;;;5080076;28;20416;-84
2023/06/01 04:02:56;;;;;;;9.50;4.28;;;11.30;99.90;;;;;;5075996;28;20430;-81
2023/06/01 04:05:24;;;;;;;9.18;4.18;;;11.40;99.90;;;;;;5081818;28;20480;-85
2023/06/01 04:07:52;;;;;;;9.25;4.30;;;11.40;99.90;;;;;;5083715;28;20435;-81
2023/06/01 04:10:18;;;;;;;9.38;3.65;;;11.40;99.90;;;;;;5075409;28;20415;-82
2023/06/01 04:12:46;;;;;;;10.18;4.10;;;11.40;99.90;;;;;;5072057;28;20468;-82
2023/06/01 04:15:13;;;;;;;9.93;4.13;;;11.40;99.90;;;;;;5077687;28;20435;-75
2023/06/01 04:17:40;;;;;;;9.45;4.57;;;11.30;99.90;;;;;;5079597;28;20801;-80
2023/06/01 04:20:10;;;;;;;8.25;4.18;;;11.40;99.90;;;;;;5078118;28;20410;-82
2023/06/01 04:22:36;;;;;;;8.63;4.20;;;11.40;99.90;;;;;;5055093;28;20438;-85
2023/06/01 04:25:05;;;;;;;8.17;3.97;;;11.50;99.90;;;;;;5076456;28;20414;-75
2023/06/01 04:27:31;;;;;;;9.23;4.50;;;11.50;99.90;;;;;;5084604;28;20456;-86
2023/06/01 04:29:58;;;;;;;10.02;4.68;;;11.60;99.90;;;;;;5071254;28;20445;-84
2023/06/01 04:32:24;;;;;;;11.15;4.28;;;11.50;99.90;;;;;;5071094;28;20480;-79
2023/06/01 04:34:50;;;;;;;8.75;4.53;;;11.40;99.90;;;;;;5084407;28;20430;-84
2023/06/01 04:37:19;;;;;;;11.48;4.57;;;11.50;99.90;;;;;;5092093;28;21043;-80
2023/06/01 04:39:48;;;;;;;7.35;4.20;;;11.50;99.90;;;;;;5079234;28;20428;-83
2023/06/01 04:42:16;;;;;;;9.85;3.85;;;11.40;99.90;;;;;;5072638;28;20452;-81
2023/06/01 04:44:45;;;;;;;11.77;4.03;;;11.30;99.90;;;;;;5083286;28;20416;-84
2023/06/01 04:47:10;;;;;;;10.65;3.60;;;11.40;99.90;;;;;;5075476;28;20416;-80
2023/06/01 04:49:36;;;;;;;10.57;4.40;;;11.50;99.90;;;;;;5068290;28;20416;-79
2023/06/01 04:52:04;;;;;;;9.68;4.18;;;11.50;99.90;;;;;;5075101;28;20448;-75
2023/06/01 04:54:29;;;;;;;9.33;4.00;;;11.50;99.90;;;;;;5089656;28;20520;-82
2023/06/01 04:56:55;;;;;;;8.50;3.50;;;11.40;99.90;;;;;;5094706;28;20461;-79
2023/06/01 04:59:21;;;;;;;7.87;4.03;;;11.30;99.90;;;;;;5072312;28;20422;-83
2023/06/01 05:01:47;;;;;;;6.83;3.30;;;11.40;99.90;;;;;;5079624;28;20497;-74
2023/06/01 05:04:12;;;;;;;7.87;3.30;;;11.50;99.90;;;;;;5082925;28;20469;-84
2023/06/01 05:06:39;;;;;;;8.07;3.80;;;11.60;99.90;;;;;;5070962;28;20426;-82
2023/06/01 05:09:05;;;;;;;9.25;4.35;;;11.40;99.90;;;;;;5085913;28;20406;-83
2023/06/01 05:11:30;;;;;;;8.38;4.25;;;11.40;99.90;;;;;;5053117;28;20442;-84
2023/06/01 05:14:01;;;;;;;7.15;3.70;;;11.40;99.90;;;;;;5060713;28;20752;-83
2023/06/01 05:16:27;;;;;;;11.65;4.82;;;11.40;99.90;;;;;;5074763;28;20424;-80
2023/06/01 05:18:53;;;;;;;8.25;3.90;;;11.50;99.90;;;;;;5098373;28;20425;-85
2023/06/01 05:21:18;;;;;;;10.68;3.58;;;11.50;99.90;;;;;;5075165;28;20435;-77
2023/06/01 05:23:44;;;;;;;7.50;3.63;;;11.40;99.90;;;;;;5077038;28;20440;-85
2023/06/01 05:26:10;;;;;;;14.52;4.30;;;11.50;99.90;;;;;;5084159;28;20923;-84
2023/06/01 05:28:36;;;;;;;8.38;3.65;;;11.60;99.90;;;;;;5082471;28;20425;-79
2023/06/01 05:31:02;;;;;;;8.97;4.03;;;11.60;99.90;;;;;;5062538;28;20830;-83
2023/06/01 05:33:28;;;;;;;10.18;3.88;;;11.60;99.90;;;;;;5083897;28;21131;-81
2023/06/01 05:35:54;;;;;;;8.03;3.30;;;11.60;99.90;;;;;;5085307;28;20420;-85
2023/06/01 05:38:20;;;;;;;9.88;4.53;;;11.80;99.90;;;;;;5034560;28;20415;-82
2023/06/01 05:40:46;;;;;;;6.93;4.37;;;11.90;99.90;;;;;;5086551;28;20436;-82
2023/06/01 05:43:11;;;;;;;10.20;4.47;;;11.70;99.90;;;;;;5093910;28;20507;-84
2023/06/01 05:45:37;;;;;;;8.90;4.37;;;11.80;99.90;;;;;;5088995;28;20417;-83
2023/06/01 05:48:03;;;;;;;8.27;4.33;;;11.80;99.90;;;;;;5067434;28;20426;-84
2023/06/01 05:50:28;;;;;;;8.75;4.35;;;11.80;99.90;;;;;;5072385;28;20443;-82
2023/06/01 05:52:55;;;;;;;26.30;7.47;;;11.90;99.90;;;;;;5081708;28;20434;-81
2023/06/01 05:55:20;;;;;;;7.88;4.45;;;11.80;99.90;;;;;;5083986;28;20978;-84
2023/06/01 05:57:46;;;;;;;13.20;5.17;;;11.70;99.90;;;;;;5077027;28;20659;-82
2023/06/01 06:00:13;;;;;;;9.45;5.00;;;11.70;99.90;;;;;;5058568;28;20407;-84
2023/06/01 06:02:41;;;;;;;18.73;5.70;;;11.60;99.90;;;;;;5069270;28;20451;-82
2023/06/01 06:05:09;;;;;;;10.82;4.07;;;11.80;99.90;;;;;;5090340;28;20527;-84
2023/06/01 06:07:35;;;;;;;10.50;3.38;;;11.80;99.90;;;;;;5069980;28;20947;-83
2023/06/01 06:10:00;;;;;;;9.82;3.55;;;11.70;99.90;;;;;;5069461;28;20418;-74
2023/06/01 06:12:26;;;;;;;12.13;3.88;;;11.70;99.90;;;;;;5073080;28;20761;-77
2023/06/01 06:14:52;;;;;;;10.70;3.78;;;11.70;99.90;;;;;;5088255;28;20420;-84
2023/06/01 06:17:18;;;;;;;7.38;3.13;;;11.70;99.90;;;;;;5076055;28;20436;-80
2023/06/01 06:19:47;;;;;;;12.65;4.30;;;11.90;99.90;;;;;;5065337;28;21458;-83
2023/06/01 06:22:13;;;;;;;13.57;4.00;;;11.90;99.90;;;;;;5065937;28;20422;-81
2023/06/01 06:24:39;;;;;;;10.02;3.03;;;11.90;99.90;;;;;;5078473;28;20509;-81
2023/06/01 06:27:06;;;;;;;8.98;3.60;;;11.90;99.90;;;;;;5084492;28;20415;-81
2023/06/01 06:29:32;;;;;;;12.40;3.20;;;11.80;99.90;;;;;;5087883;28;20422;-83
2023/06/01 06:31:57;;;;;;;11.32;3.28;;;11.80;99.90;;;;;;5087950;28;20422;-79
2023/06/01 06:34:24;;;;;;;8.37;3.07;;;11.90;99.90;;;;;;5074048;28;20428;-84
2023/06/01 06:36:49;;;;;;;12.73;3.75;;;11.70;99.90;;;;;;5066319;28;20420;-80
2023/06/01 06:39:15;;;;;;;7.67;3.00;;;11.90;99.90;;;;;;5055182;28;20502;-81
2023/06/01 06:41:41;;;;;;;12.17;4.10;;;11.80;99.90;;;;;;5080635;28;20422;-81
2023/06/01 06:44:07;;;;;;;10.63;4.03;;;11.90;99.90;;;;;;5083350;28;20436;-75
2023/06/01 06:46:34;;;;;;;7.20;3.22;;;12.00;99.90;;;;;;5085043;28;20420;-80
2023/06/01 06:49:00;;;;;;;9.07;3.38;;;12.00;99.90;;;;;;5084635;28;20505;-82
2023/06/01 06:51:26;;;;;;;10.02;3.42;;;12.00;99.90;;;;;;5085456;28;21085;-80
2023/06/01 06:53:52;;;;;;;10.88;3.58;;;12.10;99.90;;;;;;5059485;28;20501;-80
2023/06/01 06:56:20;;;;;;;6.95;2.85;;;12.20;99.90;;;;;;5085048;28;20426;-75
2023/06/01 06:58:46;;;;;;;11.70;3.70;;;12.10;99.90;;;;;;5075887;28;20430;-76
2023/06/01 07:01:12;;;;;;;6.78;2.65;;;12.10;99.90;;;;;;5094715;28;20407;-81
2023/06/01 07:03:38;;;;;;;10.70;3.10;;;12.20;99.90;;;;;;5087264;28;20515;-78
2023/06/01 07:06:04;;;;;;;8.90;2.38;;;12.20;99.90;;;;;;5107478;28;20475;-75
2023/06/01 07:08:34;;;;;;;7.57;2.75;;;12.10;99.90;;;;;;5056772;28;20505;-81
2023/06/01 07:11:00;;;;;;;6.10;3.67;;;12.10;99.90;;;;;;5101352;28;20419;-80
2023/06/01 07:13:26;;;;;;;5.07;2.90;;;12.00;99.90;;;;;;5074942;28;20437;-79
2023/06/01 07:15:53;;;;;;;6.80;2.60;;;12.10;99.90;;;;;;5085383;28;20414;-82
2023/06/01 07:18:18;;;;;;;7.90;3.70;;;12.20;99.90;;;;;;5068794;28;20491;-82
2023/06/01 07:20:44;;;;;;;6.40;2.77;;;12.20;99.90;;;;;;5067212;28;20494;-81
2023/06/01 07:23:12;;;;;;;6.90;2.67;;;12.20;99.90;;;;;;5081539;28;20907;-81
2023/06/01 07:25:38;;;;;;;12.23;3.72;;;12.30;99.90;;;;;;5069809;28;20460;-81
2023/06/01 07:28:07;;;;;;;9.55;3.30;;;12.30;99.90;;;;;;5084481;28;20414;-82
2023/06/01 07:30:33;;;;;;;9.73;3.17;;;12.20;99.90;;;;;;5078667;28;20422;-78
2023/06/01 07:32:59;;;;;;;7.32;2.67;;;12.30;99.90;;;;;;5086928;28;20449;-81
2023/06/01 07:35:25;;;;;;;6.00;2.30;;;12.40;99.90;;;;;;5051143;28;20480;-79
2023/06/01 07:37:51;;;;;;;6.97;2.20;;;12.30;99.90;;;;;;5063040;28;20426;-81
2023/06/01 07:40:16;;;;;;;5.50;2.25;;;12.20;99.90;;;;;;5060736;28;20944;-81
2023/06/01 07:42:42;;;;;;;4.80;1.95;;;12.20;99.90;;;;;;5086280;28;20468;-80
2023/06/01 07:45:09;;;;;;;6.40;1.95;;;12.40;99.90;;;;;;5035459;28;20463;-78
2023/06/01 07:47:35;;;;;;;3.60;1.87;;;12.60;99.90;;;;;;5053936;28;20424;-81
2023/06/01 07:50:00;;;;;;;5.22;1.92;;;12.80;99.90;;;;;;5070436;28;20433;-81
2023/06/01 07:52:26;;;;;;;4.97;2.05;;;12.90;99.90;;;;;;5082938;28;20421;-77
2023/06/01 07:54:52;;;;;;;5.90;2.00;;;12.90;99.90;;;;;;5088256;28;20406;-79
2023/06/01 07:57:17;;;;;;;7.50;3.23;;;12.80;99.90;;;;;;5068000;28;20460;-76
2023/06/01 07:59:43;;;;;;;5.60;1.90;;;12.80;99.90;;;;;;5071514;28;20809;-82
2023/06/01 08:02:10;;;;;;;4.70;2.30;;;12.60;99.90;;;;;;5087476;28;20912;-81
2023/06/01 08:04:38;;;;;;;7.37;2.50;;;12.50;99.90;;;;;;5084455;28;20498;-79
2023/06/01 08:07:06;;;;;;;5.40;2.17;;;12.30;99.90;;;;;;5087044;28;20405;-80
2023/06/01 08:09:32;;;;;;;5.53;2.38;;;12.40;99.90;;;;;;5067482;28;20497;-81
2023/06/01 08:11:57;;;;;;;5.07;2.00;;;12.40;99.90;;;;;;5080151;28;20498;-82
2023/06/01 08:14:23;;;;;;;5.72;2.17;;;12.60;99.90;;;;;;5067699;28;20456;-79
2023/06/01 08:16:51;;;;;;;3.28;1.80;;;12.70;99.90;;;;;;5067557;28;20415;-78
2023/06/01 08:19:17;;;;;;;4.30;1.40;;;13.10;99.90;;;;;;5066292;28;20817;-81
2023/06/01 08:21:45;;;;;;;2.75;1.55;;;12.90;99.90;;;;;;5072326;28;20419;-79
2023/06/01 08:24:12;;;;;;;3.73;1.63;;;12.70;99.90;;;;;;5076869;28;20453;-79
2023/06/01 08:26:38;;;;;;;6.85;2.30;;;12.80;99.90;;;;;;5082223;28;20425;-79
2023/06/01 08:29:03;;;;;;;6.43;2.53;;;12.70;99.90;;;;;;5086180;28;20498;-81
2023/06/01 08:31:29;;;;;;;9.37;3.40;;;12.70;99.90;;;;;;5078328;28;20419;-80
2023/06/01 08:33:55;;;;;;;6.33;3.13;;;12.50;99.90;;;;;;5074115;28;20828;-80
2023/06/01 08:36:21;;;;;;;7.05;2.55;;;12.70;99.90;;;;;;5063914;28;20407;-80
2023/06/01 08:38:51;;;;;;;6.73;2.73;;;12.70;99.90;;;;;;5067001;28;20420;-79
2023/06/01 08:41:28;;;;;;;7.40;3.22;;;12.60;99.90;;;;;;5068397;28;20429;-84
2023/06/01 08:43:58;;;;;;;9.85;3.20;;;12.60;99.90;;;;;;5071164;28;20954;-79
2023/06/01 08:46:26;;;;;;;10.10;3.53;;;12.50;99.90;;;;;;5082947;28;20509;-76
2023/06/01 08:48:57;;;;;;;13.90;4.55;;;12.40;99.90;;;;;;5072776;28;20429;-82
2023/06/01 08:51:23;;;;;;;15.15;4.15;;;12.30;99.90;;;;;;5059146;28;20457;-74
2023/06/01 08:53:50;;;;;;;14.75;4.63;;;12.40;99.90;;;;;;5051319;28;20465;-83
2023/06/01 08:56:16;;;;;;;8.20;3.45;;;12.50;99.90;;;;;;5104204;28;20937;-84
2023/06/01 08:58:44;;;;;;;11.02;3.90;;;12.20;99.90;;;;;;5060675;28;20508;-76
2023/06/01 09:01:19;;;;;;;9.90;3.40;;;12.30;99.90;;;;;;5084454;28;20463;-81
2023/06/01 09:03:45;;;;;;;10.05;3.72;;;12.30;99.90;;;;;;5067755;28;20519;-80
2023/06/01 09:06:11;;;;;;;9.52;2.92;;;12.20;99.90;;;;;;5054319;28;20424;-83
2023/06/01 09:08:37;;;;;;;8.32;3.55;;;12.10;99.90;;;;;;5068589;28;21146;-80
2023/06/01 09:11:02;;;;;;;8.07;2.78;;;12.50;99.90;;;;;;5053654;28;20431;-83
2023/06/01 09:13:36;;;;;;;8.77;3.00;;;12.50;99.90;;;;;;5075684;28;20458;-76
2023/06/01 09:16:02;;;;;;;8.23;2.95;;;12.50;99.90;;;;;;5086131;28;20420;-77
2023/06/01 09:18:28;;;;;;;7.93;3.37;;;12.70;99.90;;;;;;5072451;28;20435;-80
2023/06/01 09:20:56;;;;;;;8.53;3.20;;;12.70;99.90;;;;;;5080292;28;20445;-79
2023/06/01 09:23:28;;;;;;;10.05;3.78;;;12.70;99.90;;;;;;5075713;28;21069;-81
2023/06/01 09:26:10;;;;;;;12.05;3.60;;;12.80;99.90;;;;;;5087071;28;20445;-79
2023/06/01 09:28:54;;;;;;;11.05;3.38;;;12.70;99.90;;;;;;5088411;28;20417;-82
2023/06/01 09:31:44;;;;;;;9.32;2.50;;;12.80;99.90;;;;;;5086953;28;20816;-79
2023/06/01 09:34:11;;;;;;;13.40;4.47;;;12.60;99.90;;;;;;5073615;28;20427;-82
2023/06/01 09:36:38;;;;;;;5.95;3.03;;;12.60;99.90;;;;;;5092729;28;20710;-78
2023/06/01 09:39:14;;;;;;;12.52;3.20;;;12.60;99.90;;;;;;5106033;28;20416;-82
2023/06/01 09:41:52;;;;;;;10.60;2.75;;;12.50;99.90;;;;;;5075821;28;20427;-82
2023/06/01 09:44:30;;;;;;;12.20;3.05;;;12.60;99.90;;;;;;5099359;28;20410;-76
2023/06/01 09:47:04;;;;;;;8.40;3.00;;;12.40;99.90;;;;;;5104040;28;20902;-78
2023/06/01 09:49:39;;;;;;;6.50;3.03;;;12.50;99.90;;;;;;5104763;28;20408;-76
2023/06/01 09:52:05;;;;;;;8.27;2.20;;;12.70;99.90;;;;;;5083773;28;20435;-77
2023/06/01 09:54:42;;;;;;;16.23;3.60;;;12.80;99.90;;;;;;5074558;28;20418;-76
2023/06/01 09:57:09;;;;;;;7.78;2.17;;;13.00;99.90;;;;;;5085669;28;20408;-76
2023/06/01 09:59:40;;;;;;;10.60;2.70;;;13.20;99.90;;;;;;5100397;28;20430;-77
2023/06/01 10:02:16;;;;;;;8.13;2.90;;;13.20;99.90;;;;;;5088269;28;20814;-78
2023/06/01 10:04:50;;;;;;;10.02;3.03;;;13.10;99.90;;;;;;5072719;28;20487;-77
2023/06/01 10:07:17;;;;;;;9.98;3.00;;;12.90;99.90;;;;;;5052474;28;20857;-77
2023/06/01 10:09:48;;;;;;;13.43;3.00;;;12.90;99.90;;;;;;5061767;28;20758;-77
2023/06/01 10:12:14;;;;;;;9.68;2.83;;;12.90;99.90;;;;;;5069807;28;20422;-77
2023/06/01 10:14:40;;;;;;;8.43;2.33;;;12.90;99.90;;;;;;5095816;28;21004;-79
2023/06/01 10:17:07;;;;;;;8.80;2.60;;;12.90;99.90;;;;;;5101793;28;20479;-76
2023/06/01 10:19:35;;;;;;;9.52;3.58;;;13.00;99.90;;;;;;5088676;28;20423;-79
2023/06/01 10:22:03;;;;;;;11.32;2.80;;;13.10;99.90;;;;;;5069670;28;20424;-75
2023/06/01 10:24:29;;;;;;;10.40;2.83;;;13.10;99.90;;;;;;5079320;28;20800;-76
2023/06/01 10:27:16;;;;;;;8.55;3.45;;;13.20;99.90;;;;;;5090171;28;20489;-80
2023/06/01 10:29:42;;;;;;;9.25;2.83;;;13.30;99.90;;;;;;5071075;28;20434;-79
2023/06/01 10:32:44;;;;;;;8.07;2.70;;;13.20;99.90;;;;;;5097748;28;20529;-80
2023/06/01 10:35:36;;;;;;;8.55;3.30;;;13.30;99.90;;;;;;5094956;28;20453;-78
2023/06/01 10:38:12;;;;;;;8.52;2.85;;;13.40;99.90;;;;;;5094805;28;20412;-76
2023/06/01 10:40:42;;;;;;;10.95;3.38;;;13.30;99.90;;;;;;5083558;28;20455;-80
2023/06/01 10:43:36;;;;;;;10.60;2.90;;;13.40;99.90;;;;;;5099726;28;20418;-76
2023/06/01 10:46:02;;;;;;;7.85;3.03;;;13.40;99.90;;;;;;5092728;28;20412;-80
2023/06/01 10:48:57;;;;;;;8.32;2.38;;;13.50;99.90;;;;;;5097580;28;20409;-80
2023/06/01 10:51:27;;;;;;;9.65;2.45;;;13.30;99.90;;;;;;5095466;28;20434;-80
2023/06/01 10:53:53;;;;;;;10.63;3.28;;;13.50;99.90;;;;;;5093390;28;20420;-81
2023/06/01 10:56:22;;;;;;;11.20;3.10;;;13.50;99.90;;;;;;5098736;28;20428;-81
2023/06/01 10:59:06;;;;;;;8.45;2.65;;;13.30;99.90;;;;;;5076483;28;20479;-76
2023/06/01 11:01:33;;;;;;;8.53;2.67;;;13.30;99.90;;;;;;5076232;28;20479;-81
2023/06/01 11:03:59;;;;;;;9.13;3.35;;;13.40;99.90;;;;;;5095478;28;20408;-77
2023/06/01 11:06:35;;;;;;;6.95;2.80;;;13.50;99.90;;;;;;5060256;28;20444;-81
2023/06/01 11:09:15;;;;;;;9.93;3.08;;;13.70;99.90;;;;;;5103670;28;20467;-78
2023/06/01 11:11:55;;;;;;;11.52;4.25;;;13.30;99.90;;;;;;5073268;28;20440;-79
2023/06/01 11:14:26;;;;;;;7.32;2.60;;;13.40;99.90;;;;;;5081274;28;20434;-81
2023/06/01 11:16:54;;;;;;;10.55;2.95;;;13.80;99.90;;;;;;5063055;28;20510;-80
2023/06/01 11:19:27;;;;;;;6.50;2.90;;;13.50;99.90;;;;;;5084434;28;20420;-76
2023/06/01 11:22:01;;;;;;;8.65;2.88;;;13.50;99.90;;;;;;5088749;28;20406;-81
2023/06/01 11:24:33;;;;;;;9.95;3.15;;;13.80;99.90;;;;;;5070539;28;20418;-81
2023/06/01 11:27:06;;;;;;;9.45;3.53;;;13.60;99.90;;;;;;5080418;28;20421;-80
2023/06/01 11:29:32;;;;;;;7.55;2.45;;;13.50;99.90;;;;;;5074547;28;20415;-81
2023/06/01 11:32:00;;;;;;;6.22;2.60;;;13.80;99.90;;;;;;5071672;28;20421;-80
2023/06/01 11:34:41;;;;;;;7.50;2.75;;;13.70;99.90;;;;;;5082137;28;20508;-86
2023/06/01 11:37:18;;;;;;;11.45;3.40;;;13.90;99.90;;;;;;5081838;28;20426;-75
2023/06/01 11:39:48;;;;;;;9.02;3.42;;;13.80;99.90;;;;;;5080236;28;20869;-79
2023/06/01 11:42:16;;;;;;;6.88;2.17;;;13.80;99.90;;;;;;5056463;28;20417;-81
2023/06/01 11:44:44;;;;;;;9.13;3.17;;;13.40;99.90;;;;;;5043045;28;20419;-81
2023/06/01 11:47:11;;;;;;;8.75;2.20;;;13.70;99.90;;;;;;5068278;28;20481;-81
2023/06/01 11:49:50;;;;;;;7.40;2.80;;;13.80;99.90;;;;;;5031642;28;20412;-82
2023/06/01 11:52:17;;;;;;;9.40;2.60;;;13.60;99.90;;;;;;5079287;28;20437;-83
2023/06/01 11:54:42;;;;;;;6.03;2.50;;;13.60;99.90;;;;;;5083978;28;20512;-82
2023/06/01 11:57:10;;;;;;;7.05;2.30;;;13.60;99.90;;;;;;5061599;28;20518;-83
2023/06/01 11:59:39;;;;;;;6.83;2.67;;;13.70;99.90;;;;;;5083693;28;20506;-82
2023/06/01 12:02:20;;;;;;;6.43;2.20;;;13.60;99.90;;;;;;5055579;28;20584;-83
2023/06/01 12:05:13;;;;;;;6.35;2.22;;;14.00;99.90;;;;;;5066887;28;20428;-81
2023/06/01 12:07:53;;;;;;;10.52;2.65;;;13.90;99.90;;;;;;5065935;28;20421;-76
2023/06/01 12:10:20;;;;;;;7.93;2.25;;;13.80;99.90;;;;;;5079689;28;20418;-82
2023/06/01 12:12:46;;;;;;;6.90;2.47;;;13.90;99.90;;;;;;5042883;28;20433;-81
2023/06/01 12:15:15;;;;;;;8.68;2.75;;;14.00;99.90;;;;;;5067215;28;20419;-80
2023/06/01 12:17:52;;;;;;;9.50;3.67;;;14.00;99.90;;;;;;5054853;28;20427;-81
2023/06/01 12:20:35;;;;;;;10.02;2.70;;;13.90;99.90;;;;;;5069942;28;21193;-76
2023/06/01 12:23:05;;;;;;;8.27;3.10;;;13.70;99.90;;;;;;5086714;28;20909;-80
2023/06/01 12:25:31;;;;;;;7.13;2.73;;;13.70;99.90;;;;;;5086712;28;20416;-82
2023/06/01 12:28:15;;;;;;;8.67;2.37;;;13.30;99.90;;;;;;5101573;28;20424;-81
2023/06/01 12:30:41;;;;;;;9.40;2.20;;;13.40;99.90;;;;;;5100220;28;20896;-81
2023/06/01 12:33:06;;;;;;;7.87;2.33;;;13.50;99.90;;;;;;5088492;28;20501;-77
2023/06/01 12:35:32;;;;;;;4.95;1.92;;;13.40;99.90;;;;;;5105870;28;20440;-80
2023/06/01 12:38:12;;;;;;;7.95;2.28;;;13.70;99.90;;;;;;5088991;28;20406;-79
2023/06/01 12:40:38;;;;;;;8.90;2.50;;;13.80;99.90;;;;;;5099133;28;20886;-80
2023/06/01 12:43:08;;;;;;;6.75;2.58;;;13.70;99.90;;;;;;5085654;28;20405;-80
2023/06/01 12:45:37;;;;;;;12.77;3.30;;;13.70;99.90;;;;;;5086032;28;20760;-74
2023/06/01 12:48:04;;;;;;;9.15;2.60;;;13.80;99.90;;;;;;5085611;28;20433;-79
2023/06/01 12:50:29;;;;;;;6.88;2.10;;;14.00;99.90;;;;;;5066963;28;20493;-80
2023/06/01 12:52:55;;;;;;;8.13;2.50;;;14.00;99.90;;;;;;5086584;28;20886;-81